createdAt,value
2022-08-11T00:00:36.546Z,97867.03
2022-08-11T00:03:08.136Z,97867.84
2022-08-11T00:05:55.872Z,97866.00
2022-08-11T00:08:28.144Z,97866.41
2022-08-11T00:10:57.709Z,97859.47
2022-08-11T00:13:35.840Z,97861.91
2022-08-11T00:16:04.540Z,97868.09
2022-08-11T00:18:42.942Z,97856.19
2022-08-11T00:21:10.992Z,97860.25
2022-08-11T00:23:46.363Z,97854.06
2022-08-11T00:26:14.500Z,97855.88
2022-08-11T00:28:41.838Z,97857.31
2022-08-11T00:31:10.084Z,97863.38
2022-08-11T00:33:44.905Z,97861.53
2022-08-11T00:36:15.576Z,97860.72
2022-08-11T00:38:44.022Z,97865.22
2022-08-11T00:41:28.874Z,97852.13
2022-08-11T00:44:13.050Z,97868.09
2022-08-11T00:46:53.615Z,97874.81
2022-08-11T00:49:39.075Z,97863.97
2022-08-11T00:52:22.253Z,97866.81
2022-08-11T00:55:00.843Z,97859.75
2022-08-11T00:57:38.524Z,97854.22
2022-08-11T01:00:17.309Z,97862.81
2022-08-11T01:03:05.191Z,97851.91
2022-08-11T01:05:51.231Z,97855.13
2022-08-11T01:08:27.131Z,97855.53
2022-08-11T01:11:01.682Z,97861.66
2022-08-11T01:14:10.319Z,97855.06
2022-08-11T01:17:05.158Z,97862.34
2022-08-11T01:20:45.933Z,97861.09
2022-08-11T01:23:09.510Z,97865.94
2022-08-11T01:26:05.533Z,97858.94
2022-08-11T01:28:41.146Z,97853.34
2022-08-11T01:31:35.709Z,97858.06
2022-08-11T01:34:24.954Z,97846.19
2022-08-11T01:37:26.205Z,97849.81
2022-08-11T01:40:26.697Z,97843.47
2022-08-11T01:43:34.233Z,97852.03
2022-08-11T01:46:12.787Z,97849.72
2022-08-11T01:48:57.699Z,97841.09
2022-08-11T01:51:41.950Z,97853.00
2022-08-11T01:54:39.093Z,97858.31
2022-08-11T01:57:44.507Z,97847.94
2022-08-11T02:00:15.691Z,97851.34
2022-08-11T02:02:54.052Z,97857.41
2022-08-11T02:05:20.676Z,97853.66
2022-08-11T02:08:03.388Z,97864.06
2022-08-11T02:11:08.589Z,97855.16
2022-08-11T02:13:47.555Z,97855.53
2022-08-11T02:16:48.294Z,97854.53
2022-08-11T02:19:36.335Z,97849.03
2022-08-11T02:22:34.876Z,97853.25
2022-08-11T02:25:06.567Z,97848.66
2022-08-11T02:27:45.930Z,97850.66
2022-08-11T02:30:15.490Z,97853.13
2022-08-11T02:33:12.382Z,97854.38
2022-08-11T02:35:51.735Z,97859.38
2022-08-11T02:38:30.248Z,97858.19
2022-08-11T02:41:31.359Z,97861.09
2022-08-11T02:44:34.742Z,97863.06
2022-08-11T02:47:32.474Z,97854.38
2022-08-11T02:50:07.130Z,97858.63
2022-08-11T02:52:59.095Z,97848.34
2022-08-11T02:55:58.682Z,97858.69
2022-08-11T02:58:35.473Z,97855.94
2022-08-11T03:01:15.773Z,97845.28
2022-08-11T03:03:53.895Z,97850.31
2022-08-11T03:06:23.389Z,97856.47
2022-08-11T03:09:11.689Z,97843.06
2022-08-11T03:12:11.937Z,97854.50
2022-08-11T03:15:03.078Z,97848.38
2022-08-11T03:17:38.195Z,97847.19
2022-08-11T03:20:26.154Z,97853.31
2022-08-11T03:23:19.373Z,97854.94
2022-08-11T03:25:49.710Z,97851.94
2022-08-11T03:28:19.191Z,97850.84
2022-08-11T03:30:54.843Z,97847.19
2022-08-11T03:33:51.259Z,97852.97
2022-08-11T03:37:14.832Z,97848.59
2022-08-11T03:40:09.133Z,97849.66
2022-08-11T03:42:49.251Z,97845.38
2022-08-11T03:45:29.498Z,97862.22
2022-08-11T03:48:21.810Z,97851.69
2022-08-11T03:50:51.906Z,97849.66
2022-08-11T03:53:46.084Z,97849.31
2022-08-11T03:56:31.273Z,97853.44
2022-08-11T03:59:21.030Z,97857.91
2022-08-11T04:02:29.404Z,97854.25
2022-08-11T04:05:14.025Z,97851.59
2022-08-11T04:08:12.977Z,97854.69
2022-08-11T04:10:51.653Z,97850.97
2022-08-11T04:13:33.194Z,97862.03
2022-08-11T04:16:38.337Z,97857.72
2022-08-11T04:19:36.664Z,97862.59
2022-08-11T04:22:23.561Z,97850.69
2022-08-11T04:25:20.576Z,97860.75
2022-08-11T04:27:54.486Z,97860.91
2022-08-11T04:30:57.853Z,97855.91
2022-08-11T04:33:52.055Z,97856.41
2022-08-11T04:37:11.595Z,97866.63
2022-08-11T04:40:03.816Z,97859.16
2022-08-11T04:43:07.740Z,97858.41
2022-08-11T04:45:55.135Z,97854.19
2022-08-11T04:49:08.419Z,97847.63
2022-08-11T04:52:21.596Z,97862.41
2022-08-11T04:55:40.651Z,97867.97
2022-08-11T04:58:44.499Z,97866.44
2022-08-11T05:01:41.570Z,97868.06
2022-08-11T05:04:33.345Z,97859.59
2022-08-11T05:07:14.483Z,97860.47
2022-08-11T05:09:54.649Z,97862.03
2022-08-11T05:12:40.336Z,97860.84
2022-08-11T05:15:42.716Z,97865.63
2022-08-11T05:18:39.258Z,97867.78
2022-08-11T05:21:27.704Z,97866.66
2022-08-11T05:24:17.611Z,97871.22
2022-08-11T05:27:13.358Z,97874.13
2022-08-11T05:30:05.264Z,97876.44
2022-08-11T05:33:02.326Z,97874.66
2022-08-11T05:36:01.691Z,97880.09
2022-08-11T05:38:51.263Z,97864.22
2022-08-11T05:41:38.887Z,97877.44
2022-08-11T05:44:24.019Z,97872.59
2022-08-11T05:47:09.714Z,97883.19
2022-08-11T05:49:57.765Z,97879.00
2022-08-11T05:52:49.121Z,97872.97
2022-08-11T05:56:01.952Z,97881.47
2022-08-11T05:58:35.838Z,97878.09
2022-08-11T06:01:07.528Z,97884.84
2022-08-11T06:03:58.297Z,97876.03
2022-08-11T06:06:27.422Z,97869.00
2022-08-11T06:08:56.448Z,97870.56
2022-08-11T06:11:42.846Z,97867.19
2022-08-11T06:14:12.669Z,97873.97
2022-08-11T06:16:41.853Z,97872.56
2022-08-11T06:19:09.488Z,97877.72
2022-08-11T06:21:36.307Z,97870.50
2022-08-11T06:24:05.375Z,97877.66
2022-08-11T06:26:40.682Z,97873.16
2022-08-11T06:29:18.846Z,97874.50
2022-08-11T06:32:01.284Z,97877.66
2022-08-11T06:34:51.050Z,97867.44
2022-08-11T06:37:38.603Z,97873.09
2022-08-11T06:40:09.852Z,97870.91
2022-08-11T06:42:55.089Z,97871.03
2022-08-11T06:45:40.085Z,97865.59
2022-08-11T06:48:10.154Z,97854.94
2022-08-11T06:50:55.200Z,97859.59
2022-08-11T06:53:22.155Z,97852.44
2022-08-11T06:56:08.282Z,97859.47
2022-08-11T06:58:56.451Z,97855.47
2022-08-11T07:01:47.676Z,97850.28
2022-08-11T07:04:22.988Z,97848.72
2022-08-11T07:07:26.238Z,97857.44
2022-08-11T07:10:26.908Z,97852.47
2022-08-11T07:13:39.375Z,97852.13
2022-08-11T07:16:11.368Z,97851.06
2022-08-11T07:18:59.680Z,97848.94
2022-08-11T07:22:03.045Z,97847.56
2022-08-11T07:25:14.318Z,97846.41
2022-08-11T07:28:05.547Z,97848.81
2022-08-11T07:30:32.777Z,97844.38
2022-08-11T07:33:01.193Z,97837.47
2022-08-11T07:35:42.238Z,97843.06
2022-08-11T07:38:15.585Z,97848.81
2022-08-11T07:40:46.218Z,97841.91
2022-08-11T07:43:13.334Z,97843.88
2022-08-11T07:46:02.577Z,97847.94
2022-08-11T07:48:48.442Z,97839.22
2022-08-11T07:51:40.260Z,97841.72
2022-08-11T07:54:15.332Z,97838.84
2022-08-11T07:57:07.254Z,97841.03
2022-08-11T07:59:59.896Z,97842.19
2022-08-11T08:02:50.095Z,97825.75
2022-08-11T08:05:36.140Z,97837.59
2022-08-11T08:08:21.453Z,97837.34
2022-08-11T08:11:06.692Z,97831.94
2022-08-11T08:13:52.993Z,97834.13
2022-08-11T08:16:39.174Z,97833.06
2022-08-11T08:19:05.830Z,97831.94
2022-08-11T08:21:32.457Z,97843.78
2022-08-11T08:23:59.074Z,97835.28
2022-08-11T08:26:51.448Z,97842.31
2022-08-11T08:29:38.624Z,97833.94
2022-08-11T08:32:05.516Z,97839.56
2022-08-11T08:34:33.580Z,97828.50
2022-08-11T08:37:01.596Z,97832.88
2022-08-11T08:39:28.355Z,97840.19
2022-08-11T08:41:57.392Z,97832.56
2022-08-11T08:44:42.223Z,97826.13
2022-08-11T08:47:14.841Z,97838.88
2022-08-11T08:50:05.758Z,97839.41
2022-08-11T08:52:39.145Z,97844.81
2022-08-11T08:55:08.088Z,97837.41
2022-08-11T08:57:39.122Z,97839.06
2022-08-11T09:00:12.586Z,97833.72
2022-08-11T09:02:41.748Z,97835.88
2022-08-11T09:05:10.153Z,97833.13
2022-08-11T09:07:39.648Z,97832.28
2022-08-11T09:10:08.641Z,97837.06
2022-08-11T09:12:36.280Z,97834.94
2022-08-11T09:15:14.132Z,97828.56
2022-08-11T09:17:48.337Z,97843.22
2022-08-11T09:20:23.875Z,97839.13
2022-08-11T09:26:20.995Z,97833.28
2022-08-11T09:28:49.725Z,97833.53
2022-08-11T09:31:16.764Z,97836.50
2022-08-11T09:33:43.982Z,97831.22
2022-08-11T09:36:31.367Z,97824.50
2022-08-11T09:39:17.307Z,97823.25
2022-08-11T09:42:01.322Z,97821.88
2022-08-11T09:44:48.709Z,97812.31
2022-08-11T09:47:31.760Z,97815.09
2022-08-11T09:50:01.324Z,97807.09
2022-08-11T09:52:30.001Z,97811.47
2022-08-11T09:54:56.869Z,97791.03
2022-08-11T09:57:42.786Z,97799.22
2022-08-11T10:00:13.385Z,97800.34
2022-08-11T10:02:46.264Z,97800.56
2022-08-11T10:05:33.891Z,97796.81
2022-08-11T10:08:01.533Z,97806.97
2022-08-11T10:10:28.519Z,97799.66
2022-08-11T10:14:31.583Z,97795.16
2022-08-11T10:15:59.790Z,97785.66
2022-08-11T10:18:42.265Z,97791.94
2022-08-11T10:21:15.357Z,97803.13
2022-08-11T10:24:05.569Z,97793.16
2022-08-11T10:26:51.698Z,97790.34
2022-08-11T10:29:49.685Z,97801.22
2022-08-11T10:32:58.776Z,97782.94
2022-08-11T10:35:31.052Z,97790.56
2022-08-11T10:38:07.517Z,97781.88
2022-08-11T10:40:37.835Z,97777.03
2022-08-11T10:43:07.286Z,97777.66
2022-08-11T10:45:54.626Z,97778.13
2022-08-11T10:48:22.319Z,97767.94
2022-08-11T10:51:08.671Z,97766.44
2022-08-11T10:53:55.894Z,97766.75
2022-08-11T10:56:41.528Z,97756.38
2022-08-11T10:59:09.038Z,97747.84
2022-08-11T11:01:39.226Z,97754.28
2022-08-11T11:04:12.029Z,97747.69
2022-08-11T11:06:52.301Z,97753.63
2022-08-11T11:09:43.973Z,97744.72
2022-08-11T11:12:37.962Z,97743.75
2022-08-11T11:15:24.302Z,97746.38
2022-08-11T11:18:11.794Z,97741.69
2022-08-11T11:20:54.043Z,97732.78
2022-08-11T11:23:54.839Z,97737.16
2022-08-11T11:26:50.430Z,97733.22
2022-08-11T11:30:10.597Z,97732.06
2022-08-11T11:32:54.855Z,97721.22
2022-08-11T11:35:39.297Z,97719.88
2022-08-11T11:38:13.869Z,97711.53
2022-08-11T11:40:41.622Z,97712.97
2022-08-11T11:43:08.383Z,97699.59
2022-08-11T11:45:35.387Z,97715.00
2022-08-11T11:48:02.253Z,97695.31
2022-08-11T11:50:33.107Z,97693.00
2022-08-11T11:53:01.514Z,97694.00
2022-08-11T11:55:28.295Z,97684.22
2022-08-11T11:58:15.997Z,97692.69
2022-08-11T12:01:04.526Z,97690.81
2022-08-11T12:03:31.471Z,97686.47
2022-08-11T12:05:58.678Z,97705.25
2022-08-11T12:08:27.781Z,97693.56
2022-08-11T12:11:19.304Z,97671.63
2022-08-11T12:13:47.802Z,97670.81
2022-08-11T12:16:34.149Z,97682.84
2022-08-11T12:19:04.308Z,97678.00
2022-08-11T12:21:30.968Z,97686.25
2022-08-11T12:24:18.142Z,97676.34
2022-08-11T12:27:14.860Z,97679.31
2022-08-11T12:29:35.404Z,97666.06
2022-08-11T12:32:02.317Z,97669.06
2022-08-11T12:34:31.402Z,97671.56
2022-08-11T12:37:00.139Z,97668.56
2022-08-11T12:40:16.342Z,97661.38
2022-08-11T12:42:58.396Z,97649.25
2022-08-11T12:45:29.639Z,97658.41
2022-08-11T12:48:57.512Z,97648.03
2022-08-11T12:52:00.760Z,97653.06
2022-08-11T12:54:32.943Z,97642.03
2022-08-11T12:57:36.180Z,97646.69
2022-08-11T13:00:24.661Z,97639.41
2022-08-11T13:03:10.321Z,97639.78
2022-08-11T13:05:44.824Z,97628.25
2022-08-11T13:08:15.070Z,97626.22
2022-08-11T13:11:01.142Z,97624.16
2022-08-11T13:13:52.829Z,97625.31
2022-08-11T13:16:15.175Z,97623.47
2022-08-11T13:18:42.976Z,97622.06
2022-08-11T13:21:20.200Z,97628.03
2022-08-11T13:24:00.665Z,97624.84
2022-08-11T13:26:47.226Z,97613.78
2022-08-11T13:29:22.190Z,97614.03
2022-08-11T13:31:49.044Z,97615.44
2022-08-11T13:34:19.760Z,97610.13
2022-08-11T13:36:49.076Z,97602.34
2022-08-11T13:39:16.404Z,97597.94
2022-08-11T13:41:44.061Z,97595.00
2022-08-11T13:44:15.632Z,97594.00
2022-08-11T13:46:45.384Z,97591.56
2022-08-11T13:49:16.165Z,97596.50
2022-08-11T13:51:43.722Z,97581.81
2022-08-11T13:54:12.808Z,97585.38
2022-08-11T13:56:42.929Z,97580.88
2022-08-11T13:59:10.381Z,97593.97
2022-08-11T14:02:22.405Z,97581.75
2022-08-11T14:04:51.883Z,97571.44
2022-08-11T14:07:22.293Z,97570.72
2022-08-11T14:09:55.596Z,97580.66
2022-08-11T14:12:44.378Z,97576.34
2022-08-11T14:15:19.961Z,97578.06
2022-08-11T14:17:58.095Z,97572.34
2022-08-11T14:20:39.248Z,97572.50
2022-08-11T14:23:06.963Z,97563.50
2022-08-11T14:26:00.817Z,97568.16
2022-08-11T14:28:31.664Z,97565.28
2022-08-11T14:31:02.063Z,97569.78
2022-08-11T14:33:58.745Z,97562.91
2022-08-11T14:36:17.656Z,97558.78
2022-08-11T14:38:44.501Z,97563.91
2022-08-11T14:41:29.678Z,97563.94
2022-08-11T14:44:15.948Z,97560.69
2022-08-11T14:47:02.257Z,97564.63
2022-08-11T14:49:29.585Z,97562.00
2022-08-11T14:51:57.784Z,97559.28
2022-08-11T14:54:45.053Z,97568.25
2022-08-11T14:57:11.640Z,97549.75
2022-08-11T14:59:38.333Z,97551.38
2022-08-11T15:02:24.514Z,97544.38
2022-08-11T15:04:51.517Z,97543.66
2022-08-11T15:07:18.944Z,97546.41
2022-08-11T15:10:11.566Z,97549.00
2022-08-11T15:12:34.015Z,97542.16
2022-08-11T15:15:24.869Z,97554.09
2022-08-11T15:17:56.973Z,97549.03
2022-08-11T15:20:43.095Z,97537.75
2022-08-11T15:23:28.917Z,97542.19
2022-08-11T15:25:58.600Z,97540.94
2022-08-11T15:28:46.364Z,97536.91
2022-08-11T15:31:29.101Z,97526.03
2022-08-11T15:34:18.239Z,97523.81
2022-08-11T15:37:05.932Z,97519.41
2022-08-11T15:40:06.425Z,97521.97
2022-08-11T15:42:51.941Z,97525.09
2022-08-11T15:45:45.627Z,97530.56
2022-08-11T15:48:15.308Z,97529.34
2022-08-11T15:50:46.539Z,97523.25
2022-08-11T15:53:42.594Z,97518.59
2022-08-11T15:56:11.080Z,97503.34
2022-08-11T15:59:13.726Z,97509.28
2022-08-11T16:02:10.517Z,97508.88
2022-08-11T16:04:38.489Z,97508.56
2022-08-11T16:07:11.734Z,97506.06
2022-08-11T16:09:47.618Z,97505.13
2022-08-11T16:12:26.112Z,97500.41
2022-08-11T16:15:13.636Z,97503.13
2022-08-11T16:17:50.687Z,97502.16
2022-08-11T16:20:21.952Z,97500.72
2022-08-11T16:23:00.481Z,97497.00
2022-08-11T16:26:30.291Z,97505.34
2022-08-11T16:28:16.995Z,97490.41
2022-08-11T16:30:46.357Z,97495.06
2022-08-11T16:33:48.953Z,97487.31
2022-08-11T16:36:18.967Z,97494.31
2022-08-11T16:38:46.385Z,97493.19
2022-08-11T16:41:15.268Z,97495.41
2022-08-11T16:44:08.037Z,97490.00
2022-08-11T16:46:54.871Z,97490.59
2022-08-11T16:49:25.105Z,97484.91
2022-08-11T16:51:52.103Z,97492.69
2022-08-11T16:54:19.636Z,97488.53
2022-08-11T16:56:50.788Z,97498.44
2022-08-11T16:59:21.006Z,97490.19
2022-08-11T17:01:54.561Z,97494.06
2022-08-11T17:04:39.686Z,97496.03
2022-08-11T17:07:41.594Z,97497.13
2022-08-11T17:10:52.794Z,97495.91
2022-08-11T17:13:22.875Z,97505.22
2022-08-11T17:16:10.185Z,97496.34
2022-08-11T17:18:47.844Z,97498.28
2022-08-11T17:21:22.090Z,97493.19
2022-08-11T17:23:56.166Z,97485.69
2022-08-11T17:26:27.377Z,97488.84
2022-08-11T17:28:58.142Z,97490.06
2022-08-11T17:31:45.005Z,97489.31
2022-08-11T17:34:30.719Z,97484.78
2022-08-11T17:36:57.720Z,97489.50
2022-08-11T17:39:28.243Z,97484.41
2022-08-11T17:42:13.922Z,97483.88
2022-08-11T17:45:00.112Z,97478.84
2022-08-11T17:47:45.805Z,97479.19
2022-08-11T17:50:16.667Z,97488.94
2022-08-11T17:53:04.586Z,97487.38
2022-08-11T17:55:53.373Z,97490.41
2022-08-11T17:58:39.624Z,97489.09
2022-08-11T18:01:09.690Z,97488.03
2022-08-11T18:03:39.716Z,97494.28
2022-08-11T18:06:12.482Z,97495.13
2022-08-11T18:09:01.628Z,97498.59
2022-08-11T18:12:06.540Z,97497.56
2022-08-11T18:14:56.295Z,97502.22
2022-08-11T18:17:41.650Z,97497.91
2022-08-11T18:20:27.224Z,97502.78
2022-08-11T18:23:13.564Z,97509.00
2022-08-11T18:26:01.345Z,97505.22
2022-08-11T18:28:51.571Z,97518.19
2022-08-11T18:31:37.059Z,97515.22
2022-08-11T18:34:24.101Z,97521.97
2022-08-11T18:37:26.025Z,97508.19
2022-08-11T18:40:23.106Z,97517.88
2022-08-11T18:43:08.843Z,97521.59
2022-08-11T18:46:06.511Z,97524.19
2022-08-11T18:48:55.706Z,97524.63
2022-08-11T18:51:43.057Z,97532.06
2022-08-11T18:54:29.340Z,97515.22
2022-08-11T18:57:22.476Z,97522.66
2022-08-11T19:00:09.220Z,97530.53
2022-08-11T19:02:55.858Z,97529.22
2022-08-11T19:06:32.422Z,97528.53
2022-08-11T19:08:56.509Z,97538.09
2022-08-11T19:11:43.706Z,97538.53
2022-08-11T19:14:32.520Z,97540.28
2022-08-11T19:17:44.683Z,97541.47
2022-08-11T19:20:26.875Z,97544.41
2022-08-11T19:23:13.466Z,97545.34
2022-08-11T19:25:59.088Z,97552.78
2022-08-11T19:28:44.819Z,97555.25
2022-08-11T19:31:30.258Z,97554.00
2022-08-11T19:34:15.998Z,97558.66
2022-08-11T19:37:01.662Z,97571.59
2022-08-11T19:39:47.365Z,97576.09
2022-08-11T19:42:33.811Z,97577.53
2022-08-11T19:45:19.891Z,97579.81
2022-08-11T19:48:30.604Z,97576.03
2022-08-11T19:51:12.306Z,97584.34
2022-08-11T19:53:57.958Z,97577.19
2022-08-11T19:56:43.557Z,97580.34
2022-08-11T19:59:29.170Z,97581.28
2022-08-11T20:02:14.826Z,97576.22
2022-08-11T20:05:01.370Z,97583.97
2022-08-11T20:07:47.567Z,97577.81
2022-08-11T20:10:36.137Z,97580.28
2022-08-11T20:13:22.356Z,97581.81
2022-08-11T20:16:12.595Z,97577.47
2022-08-11T20:18:58.226Z,97579.13
2022-08-11T20:21:44.252Z,97575.97
2022-08-11T20:24:29.906Z,97572.63
2022-08-11T20:27:24.060Z,97575.63
2022-08-11T20:30:09.856Z,97574.97
2022-08-11T20:32:56.036Z,97582.66
2022-08-11T20:35:42.390Z,97581.25
2022-08-11T20:38:27.855Z,97581.13
2022-08-11T20:41:16.299Z,97571.81
2022-08-11T20:44:07.795Z,97574.22
2022-08-11T20:46:58.303Z,97576.91
2022-08-11T20:49:53.579Z,97581.44
2022-08-11T20:52:47.497Z,97582.34
2022-08-11T21:01:45.935Z,97595.66
2022-08-11T21:04:32.544Z,97592.69
2022-08-11T21:07:28.749Z,97593.97
2022-08-11T21:10:22.949Z,97586.81
2022-08-11T21:13:26.412Z,97598.06
2022-08-11T21:16:26.342Z,97596.66
2022-08-11T21:20:01.819Z,97592.78
2022-08-11T21:22:58.724Z,97595.16
2022-08-11T21:25:48.211Z,97590.53
2022-08-11T21:28:37.501Z,97589.88
2022-08-11T21:31:24.668Z,97595.41
2022-08-11T21:34:09.883Z,97595.03
2022-08-11T21:36:54.970Z,97595.19
2022-08-11T21:39:41.324Z,97598.53
2022-08-11T21:42:27.500Z,97597.94
2022-08-11T21:45:13.280Z,97599.41
2022-08-11T21:48:00.985Z,97605.41
2022-08-11T21:50:46.542Z,97600.53
2022-08-11T21:53:32.348Z,97601.56
2022-08-11T21:56:17.764Z,97602.03
2022-08-11T21:59:06.884Z,97595.06
2022-08-11T22:01:52.458Z,97603.44
2022-08-11T22:04:38.176Z,97602.34
2022-08-11T22:07:23.847Z,97604.81
2022-08-11T22:10:40.783Z,97593.22
2022-08-11T22:13:13.994Z,97600.59
2022-08-11T22:15:59.241Z,97608.09
2022-08-11T22:18:44.513Z,97608.31
2022-08-11T22:22:01.186Z,97611.34
2022-08-11T22:24:36.271Z,97603.59
2022-08-11T22:27:22.637Z,97605.16
2022-08-11T22:30:07.745Z,97604.13
2022-08-11T22:32:54.629Z,97603.69
2022-08-11T22:35:41.336Z,97606.22
2022-08-11T22:38:26.959Z,97599.31
2022-08-11T22:41:12.594Z,97602.69
2022-08-11T22:43:57.676Z,97613.69
2022-08-11T22:46:43.489Z,97613.25
2022-08-11T22:49:30.714Z,97603.03
2022-08-11T22:52:37.493Z,97605.09
2022-08-11T22:55:23.017Z,97606.81
2022-08-11T22:58:09.683Z,97604.00
2022-08-11T23:00:55.738Z,97611.00
2022-08-11T23:03:41.803Z,97616.34
2022-08-11T23:06:27.114Z,97606.97
2022-08-11T23:09:12.353Z,97608.44
2022-08-11T23:12:07.305Z,97605.84
2022-08-11T23:14:56.160Z,97600.72
2022-08-11T23:17:41.625Z,97606.44
2022-08-11T23:20:34.189Z,97614.44
2022-08-11T23:23:29.227Z,97612.38
2022-08-11T23:26:14.806Z,97604.03
2022-08-11T23:29:04.969Z,97612.44
2022-08-11T23:31:52.942Z,97613.75
2022-08-11T23:35:04.737Z,97602.72
2022-08-11T23:37:49.167Z,97603.53
2022-08-11T23:40:34.419Z,97597.00
2022-08-11T23:43:19.456Z,97599.53
2022-08-11T23:46:04.726Z,97597.25
2022-08-11T23:48:50.819Z,97597.72
2022-08-11T23:51:40.452Z,97592.19
2022-08-11T23:54:27.153Z,97590.34
2022-08-11T23:57:13.406Z,97583.38
2022-08-11T23:59:58.460Z,97595.06
